sensor_id;sensor_type;location;lat;lon;timestamp;P1;durP1;ratioP1;P2;durP2;ratioP2
63492;SDS011;49638;47.526;10.028;2023-02-24T00:02:44;10.98;;;3.78;;
63492;SDS011;49638;47.526;10.028;2023-02-24T00:05:45;9.88;;;3.78;;
63492;SDS011;49638;47.526;10.028;2023-02-24T00:08:48;12.18;;;4.60;;
63492;SDS011;49638;47.526;10.028;2023-02-24T00:11:53;11.60;;;4.82;;
63492;SDS011;49638;47.526;10.028;2023-02-24T00:14:58;12.80;;;4.75;;
63492;SDS011;49638;47.526;10.028;2023-02-24T00:17:58;14.20;;;5.32;;
63492;SDS011;49638;47.526;10.028;2023-02-24T00:21:05;12.45;;;4.05;;
63492;SDS011;49638;47.526;10.028;2023-02-24T00:24:07;10.30;;;3.92;;
63492;SDS011;49638;47.526;10.028;2023-02-24T00:27:08;7.90;;;3.58;;
63492;SDS011;49638;47.526;10.028;2023-02-24T00:30:10;15.07;;;4.65;;
63492;SDS011;49638;47.526;10.028;2023-02-24T00:33:11;9.98;;;3.97;;
63492;SDS011;49638;47.526;10.028;2023-02-24T00:36:13;15.05;;;4.68;;
63492;SDS011;49638;47.526;10.028;2023-02-24T00:39:15;9.75;;;3.85;;
63492;SDS011;49638;47.526;10.028;2023-02-24T00:42:15;8.30;;;3.88;;
63492;SDS011;49638;47.526;10.028;2023-02-24T00:45:16;11.60;;;5.50;;
63492;SDS011;49638;47.526;10.028;2023-02-24T00:48:16;17.63;;;4.85;;
63492;SDS011;49638;47.526;10.028;2023-02-24T00:51:17;10.95;;;3.95;;
63492;SDS011;49638;47.526;10.028;2023-02-24T00:54:24;13.73;;;3.75;;
63492;SDS011;49638;47.526;10.028;2023-02-24T00:57:27;8.95;;;4.00;;
63492;SDS011;49638;47.526;10.028;2023-02-24T01:00:27;8.80;;;3.90;;
63492;SDS011;49638;47.526;10.028;2023-02-24T01:03:27;13.55;;;4.10;;
63492;SDS011;49638;47.526;10.028;2023-02-24T01:06:28;13.05;;;4.25;;
63492;SDS011;49638;47.526;10.028;2023-02-24T01:09:29;8.70;;;4.13;;
63492;SDS011;49638;47.526;10.028;2023-02-24T01:12:30;11.55;;;3.78;;
63492;SDS011;49638;47.526;10.028;2023-02-24T01:15:49;13.95;;;4.45;;
63492;SDS011;49638;47.526;10.028;2023-02-24T01:18:49;12.63;;;4.60;;
63492;SDS011;49638;47.526;10.028;2023-02-24T01:21:50;10.30;;;3.80;;
63492;SDS011;49638;47.526;10.028;2023-02-24T01:24:54;14.10;;;4.40;;
63492;SDS011;49638;47.526;10.028;2023-02-24T01:27:54;14.25;;;4.93;;
63492;SDS011;49638;47.526;10.028;2023-02-24T01:30:59;13.65;;;4.07;;
63492;SDS011;49638;47.526;10.028;2023-02-24T01:34:01;9.70;;;3.75;;
63492;SDS011;49638;47.526;10.028;2023-02-24T01:37:04;8.40;;;3.60;;
63492;SDS011;49638;47.526;10.028;2023-02-24T01:40:06;10.32;;;3.80;;
63492;SDS011;49638;47.526;10.028;2023-02-24T01:43:10;14.13;;;4.80;;
63492;SDS011;49638;47.526;10.028;2023-02-24T01:46:11;12.40;;;4.90;;
63492;SDS011;49638;47.526;10.028;2023-02-24T01:49:14;16.15;;;4.90;;
63492;SDS011;49638;47.526;10.028;2023-02-24T01:52:20;12.25;;;4.43;;
63492;SDS011;49638;47.526;10.028;2023-02-24T01:55:33;11.30;;;4.47;;
63492;SDS011;49638;47.526;10.028;2023-02-24T01:58:39;10.70;;;4.15;;
63492;SDS011;49638;47.526;10.028;2023-02-24T02:01:40;12.73;;;4.25;;
63492;SDS011;49638;47.526;10.028;2023-02-24T02:05:02;14.10;;;4.53;;
63492;SDS011;49638;47.526;10.028;2023-02-24T02:08:04;13.15;;;3.97;;
63492;SDS011;49638;47.526;10.028;2023-02-24T02:11:06;9.40;;;3.30;;
63492;SDS011;49638;47.526;10.028;2023-02-24T02:14:08;9.25;;;4.00;;
63492;SDS011;49638;47.526;10.028;2023-02-24T02:17:16;10.10;;;4.00;;
63492;SDS011;49638;47.526;10.028;2023-02-24T02:23:57;11.73;;;3.95;;
63492;SDS011;49638;47.526;10.028;2023-02-24T02:30:55;11.20;;;3.28;;
63492;SDS011;49638;47.526;10.028;2023-02-24T02:37:54;13.30;;;4.20;;
63492;SDS011;49638;47.526;10.028;2023-02-24T02:47:51;12.02;;;4.07;;
63492;SDS011;49638;47.526;10.028;2023-02-24T02:51:02;14.23;;;3.88;;
63492;SDS011;49638;47.526;10.028;2023-02-24T02:57:28;17.05;;;4.22;;
63492;SDS011;49638;47.526;10.028;2023-02-24T03:00:32;12.63;;;3.83;;
63492;SDS011;49638;47.526;10.028;2023-02-24T03:03:41;10.43;;;4.25;;
63492;SDS011;49638;47.526;10.028;2023-02-24T03:06:49;11.52;;;3.58;;
63492;SDS011;49638;47.526;10.028;2023-02-24T03:09:54;10.23;;;3.60;;
63492;SDS011;49638;47.526;10.028;2023-02-24T03:12:59;10.88;;;3.88;;
63492;SDS011;49638;47.526;10.028;2023-02-24T03:16:04;9.68;;;3.80;;
63492;SDS011;49638;47.526;10.028;2023-02-24T03:19:06;7.38;;;3.10;;
63492;SDS011;49638;47.526;10.028;2023-02-24T03:22:10;12.80;;;4.00;;
63492;SDS011;49638;47.526;10.028;2023-02-24T03:25:14;10.18;;;3.97;;
63492;SDS011;49638;47.526;10.028;2023-02-24T03:28:35;6.95;;;3.50;;
63492;SDS011;49638;47.526;10.028;2023-02-24T03:31:41;11.43;;;3.45;;
63492;SDS011;49638;47.526;10.028;2023-02-24T03:37:57;9.95;;;3.50;;
63492;SDS011;49638;47.526;10.028;2023-02-24T03:40:58;14.50;;;3.67;;
63492;SDS011;49638;47.526;10.028;2023-02-24T03:43:58;10.60;;;3.55;;
63492;SDS011;49638;47.526;10.028;2023-02-24T03:47:00;15.57;;;4.05;;
63492;SDS011;49638;47.526;10.028;2023-02-24T03:50:01;8.82;;;3.53;;
63492;SDS011;49638;47.526;10.028;2023-02-24T03:56:38;8.77;;;4.45;;
63492;SDS011;49638;47.526;10.028;2023-02-24T04:02:59;8.15;;;4.05;;
63492;SDS011;49638;47.526;10.028;2023-02-24T04:06:22;8.05;;;3.78;;
63492;SDS011;49638;47.526;10.028;2023-02-24T04:09:26;15.32;;;4.05;;
63492;SDS011;49638;47.526;10.028;2023-02-24T04:12:38;11.77;;;4.05;;
63492;SDS011;49638;47.526;10.028;2023-02-24T04:15:52;7.70;;;3.70;;
63492;SDS011;49638;47.526;10.028;2023-02-24T04:19:00;11.90;;;4.05;;
63492;SDS011;49638;47.526;10.028;2023-02-24T04:22:04;11.10;;;3.95;;
63492;SDS011;49638;47.526;10.028;2023-02-24T04:25:09;9.27;;;3.70;;
63492;SDS011;49638;47.526;10.028;2023-02-24T04:28:12;12.45;;;3.97;;
63492;SDS011;49638;47.526;10.028;2023-02-24T04:31:14;8.70;;;3.78;;
63492;SDS011;49638;47.526;10.028;2023-02-24T04:34:18;8.75;;;3.80;;
63492;SDS011;49638;47.526;10.028;2023-02-24T04:37:19;8.55;;;3.97;;
63492;SDS011;49638;47.526;10.028;2023-02-24T04:40:22;7.30;;;2.90;;
63492;SDS011;49638;47.526;10.028;2023-02-24T04:43:22;10.18;;;3.13;;
63492;SDS011;49638;47.526;10.028;2023-02-24T04:46:22;8.13;;;3.25;;
63492;SDS011;49638;47.526;10.028;2023-02-24T04:49:23;10.25;;;3.42;;
63492;SDS011;49638;47.526;10.028;2023-02-24T04:52:24;9.13;;;3.75;;
63492;SDS011;49638;47.526;10.028;2023-02-24T04:55:24;10.90;;;4.35;;
63492;SDS011;49638;47.526;10.028;2023-02-24T04:58:28;12.75;;;4.55;;
63492;SDS011;49638;47.526;10.028;2023-02-24T05:01:28;10.70;;;4.05;;
63492;SDS011;49638;47.526;10.028;2023-02-24T05:04:30;11.43;;;4.25;;
63492;SDS011;49638;47.526;10.028;2023-02-24T05:07:34;11.55;;;3.95;;
63492;SDS011;49638;47.526;10.028;2023-02-24T05:10:39;8.52;;;3.70;;
63492;SDS011;49638;47.526;10.028;2023-02-24T05:13:43;10.02;;;4.03;;
63492;SDS011;49638;47.526;10.028;2023-02-24T05:16:46;7.97;;;3.78;;
63492;SDS011;49638;47.526;10.028;2023-02-24T05:19:47;4.50;;;2.73;;
63492;SDS011;49638;47.526;10.028;2023-02-24T05:23:06;9.80;;;3.88;;
63492;SDS011;49638;47.526;10.028;2023-02-24T05:26:09;14.55;;;4.25;;
63492;SDS011;49638;47.526;10.028;2023-02-24T05:29:14;9.25;;;4.43;;
63492;SDS011;49638;47.526;10.028;2023-02-24T05:32:15;9.00;;;3.35;;
63492;SDS011;49638;47.526;10.028;2023-02-24T05:35:15;9.52;;;4.47;;
63492;SDS011;49638;47.526;10.028;2023-02-24T05:38:16;10.35;;;3.97;;
63492;SDS011;49638;47.526;10.028;2023-02-24T05:41:18;8.80;;;4.03;;
63492;SDS011;49638;47.526;10.028;2023-02-24T05:44:19;12.63;;;4.15;;
63492;SDS011;49638;47.526;10.028;2023-02-24T05:47:21;9.65;;;3.90;;
63492;SDS011;49638;47.526;10.028;2023-02-24T05:50:24;11.45;;;3.90;;
63492;SDS011;49638;47.526;10.028;2023-02-24T05:53:25;8.30;;;4.10;;
63492;SDS011;49638;47.526;10.028;2023-02-24T05:56:26;13.93;;;3.75;;
63492;SDS011;49638;47.526;10.028;2023-02-24T05:59:26;14.93;;;7.00;;
63492;SDS011;49638;47.526;10.028;2023-02-24T06:02:31;10.57;;;3.78;;
63492;SDS011;49638;47.526;10.028;2023-02-24T06:05:36;9.75;;;3.42;;
63492;SDS011;49638;47.526;10.028;2023-02-24T06:08:38;10.85;;;3.80;;
63492;SDS011;49638;47.526;10.028;2023-02-24T06:11:42;12.27;;;3.80;;
63492;SDS011;49638;47.526;10.028;2023-02-24T06:14:44;8.50;;;3.58;;
63492;SDS011;49638;47.526;10.028;2023-02-24T06:17:44;16.58;;;3.67;;
63492;SDS011;49638;47.526;10.028;2023-02-24T06:20:44;16.92;;;4.13;;
63492;SDS011;49638;47.526;10.028;2023-02-24T06:23:50;8.77;;;3.50;;
63492;SDS011;49638;47.526;10.028;2023-02-24T06:26:50;6.32;;;3.03;;
63492;SDS011;49638;47.526;10.028;2023-02-24T06:29:53;9.20;;;3.50;;
63492;SDS011;49638;47.526;10.028;2023-02-24T06:32:53;9.40;;;4.45;;
63492;SDS011;49638;47.526;10.028;2023-02-24T06:35:58;10.48;;;4.43;;
63492;SDS011;49638;47.526;10.028;2023-02-24T06:38:59;9.93;;;4.20;;
63492;SDS011;49638;47.526;10.028;2023-02-24T06:41:59;16.92;;;7.30;;
63492;SDS011;49638;47.526;10.028;2023-02-24T06:45:03;10.00;;;5.10;;
63492;SDS011;49638;47.526;10.028;2023-02-24T06:48:07;15.82;;;5.53;;
63492;SDS011;49638;47.526;10.028;2023-02-24T06:51:09;14.00;;;5.35;;
63492;SDS011;49638;47.526;10.028;2023-02-24T06:54:12;7.65;;;4.25;;
63492;SDS011;49638;47.526;10.028;2023-02-24T06:57:14;11.52;;;4.63;;
63492;SDS011;49638;47.526;10.028;2023-02-24T07:00:14;11.32;;;5.15;;
63492;SDS011;49638;47.526;10.028;2023-02-24T07:03:19;12.05;;;4.60;;
63492;SDS011;49638;47.526;10.028;2023-02-24T07:06:19;32.05;;;12.32;;
63492;SDS011;49638;47.526;10.028;2023-02-24T07:09:22;21.48;;;8.70;;
63492;SDS011;49638;47.526;10.028;2023-02-24T07:12:23;10.50;;;3.93;;
63492;SDS011;49638;47.526;10.028;2023-02-24T07:15:24;11.93;;;4.05;;
63492;SDS011;49638;47.526;10.028;2023-02-24T07:18:24;10.00;;;3.72;;
63492;SDS011;49638;47.526;10.028;2023-02-24T07:21:25;6.45;;;3.83;;
63492;SDS011;49638;47.526;10.028;2023-02-24T07:24:30;8.82;;;3.78;;
63492;SDS011;49638;47.526;10.028;2023-02-24T07:27:39;8.38;;;3.97;;
63492;SDS011;49638;47.526;10.028;2023-02-24T07:30:40;11.57;;;4.20;;
63492;SDS011;49638;47.526;10.028;2023-02-24T07:33:40;10.80;;;4.10;;
63492;SDS011;49638;47.526;10.028;2023-02-24T07:36:44;9.68;;;3.80;;
63492;SDS011;49638;47.526;10.028;2023-02-24T07:42:48;9.88;;;3.80;;
63492;SDS011;49638;47.526;10.028;2023-02-24T07:45:48;13.80;;;4.38;;
63492;SDS011;49638;47.526;10.028;2023-02-24T07:48:49;9.27;;;4.15;;
63492;SDS011;49638;47.526;10.028;2023-02-24T07:51:51;14.27;;;4.35;;
63492;SDS011;49638;47.526;10.028;2023-02-24T07:54:56;13.48;;;4.43;;
63492;SDS011;49638;47.526;10.028;2023-02-24T07:57:57;7.00;;;3.90;;
63492;SDS011;49638;47.526;10.028;2023-02-24T08:01:00;12.27;;;3.88;;
63492;SDS011;49638;47.526;10.028;2023-02-24T08:04:08;6.97;;;3.67;;
63492;SDS011;49638;47.526;10.028;2023-02-24T08:07:11;11.30;;;4.00;;
63492;SDS011;49638;47.526;10.028;2023-02-24T08:10:13;8.38;;;3.78;;
63492;SDS011;49638;47.526;10.028;2023-02-24T08:13:22;11.00;;;3.60;;
63492;SDS011;49638;47.526;10.028;2023-02-24T08:16:23;12.85;;;4.07;;
63492;SDS011;49638;47.526;10.028;2023-02-24T08:19:24;14.70;;;3.97;;
63492;SDS011;49638;47.526;10.028;2023-02-24T08:22:31;8.27;;;3.65;;
63492;SDS011;49638;47.526;10.028;2023-02-24T08:25:36;9.93;;;3.70;;
63492;SDS011;49638;47.526;10.028;2023-02-24T08:28:40;7.60;;;3.65;;
63492;SDS011;49638;47.526;10.028;2023-02-24T08:31:41;14.48;;;3.53;;
63492;SDS011;49638;47.526;10.028;2023-02-24T08:34:42;11.55;;;3.65;;
63492;SDS011;49638;47.526;10.028;2023-02-24T08:37:47;11.77;;;3.75;;
63492;SDS011;49638;47.526;10.028;2023-02-24T08:40:54;10.30;;;3.70;;
63492;SDS011;49638;47.526;10.028;2023-02-24T08:43:58;11.75;;;3.70;;
63492;SDS011;49638;47.526;10.028;2023-02-24T08:47:01;8.50;;;4.03;;
63492;SDS011;49638;47.526;10.028;2023-02-24T08:50:04;11.68;;;3.72;;
63492;SDS011;49638;47.526;10.028;2023-02-24T08:53:06;9.07;;;3.88;;
63492;SDS011;49638;47.526;10.028;2023-02-24T08:56:10;12.07;;;4.10;;
63492;SDS011;49638;47.526;10.028;2023-02-24T08:59:12;10.75;;;4.05;;
63492;SDS011;49638;47.526;10.028;2023-02-24T09:02:27;8.10;;;3.83;;
63492;SDS011;49638;47.526;10.028;2023-02-24T09:05:28;11.48;;;4.25;;
63492;SDS011;49638;47.526;10.028;2023-02-24T09:08:29;11.65;;;3.80;;
63492;SDS011;49638;47.526;10.028;2023-02-24T09:11:31;10.93;;;4.17;;
63492;SDS011;49638;47.526;10.028;2023-02-24T09:14:33;14.77;;;4.63;;
63492;SDS011;49638;47.526;10.028;2023-02-24T09:17:36;44.08;;;9.23;;
63492;SDS011;49638;47.526;10.028;2023-02-24T09:20:39;18.50;;;5.90;;
63492;SDS011;49638;47.526;10.028;2023-02-24T09:23:58;11.20;;;5.68;;
63492;SDS011;49638;47.526;10.028;2023-02-24T09:30:03;9.00;;;4.40;;
63492;SDS011;49638;47.526;10.028;2023-02-24T09:33:07;9.73;;;4.60;;
63492;SDS011;49638;47.526;10.028;2023-02-24T09:36:19;12.60;;;4.50;;
63492;SDS011;49638;47.526;10.028;2023-02-24T09:39:26;13.20;;;3.55;;
63492;SDS011;49638;47.526;10.028;2023-02-24T09:42:29;8.50;;;3.50;;
63492;SDS011;49638;47.526;10.028;2023-02-24T09:46:18;11.45;;;4.00;;
63492;SDS011;49638;47.526;10.028;2023-02-24T09:49:15;11.13;;;4.20;;
63492;SDS011;49638;47.526;10.028;2023-02-24T09:52:17;14.55;;;4.43;;
63492;SDS011;49638;47.526;10.028;2023-02-24T09:55:22;10.43;;;4.43;;
63492;SDS011;49638;47.526;10.028;2023-02-24T09:58:30;10.48;;;4.50;;
63492;SDS011;49638;47.526;10.028;2023-02-24T10:04:55;8.23;;;4.28;;
63492;SDS011;49638;47.526;10.028;2023-02-24T10:08:11;7.57;;;3.80;;
63492;SDS011;49638;47.526;10.028;2023-02-24T10:11:24;12.70;;;4.32;;
63492;SDS011;49638;47.526;10.028;2023-02-24T10:14:49;11.90;;;4.50;;
63492;SDS011;49638;47.526;10.028;2023-02-24T10:17:53;8.20;;;3.80;;
63492;SDS011;49638;47.526;10.028;2023-02-24T10:21:00;10.93;;;3.78;;
63492;SDS011;49638;47.526;10.028;2023-02-24T10:24:13;10.95;;;5.10;;
63492;SDS011;49638;47.526;10.028;2023-02-24T10:27:22;12.55;;;5.85;;
63492;SDS011;49638;47.526;10.028;2023-02-24T10:33:47;16.95;;;6.38;;
63492;SDS011;49638;47.526;10.028;2023-02-24T10:36:48;16.98;;;6.07;;
63492;SDS011;49638;47.526;10.028;2023-02-24T10:39:49;16.30;;;6.63;;
63492;SDS011;49638;47.526;10.028;2023-02-24T10:43:04;17.73;;;7.18;;
63492;SDS011;49638;47.526;10.028;2023-02-24T10:46:26;14.90;;;6.57;;
63492;SDS011;49638;47.526;10.028;2023-02-24T10:49:38;15.85;;;7.05;;
63492;SDS011;49638;47.526;10.028;2023-02-24T10:52:43;17.13;;;7.03;;
63492;SDS011;49638;47.526;10.028;2023-02-24T10:56:11;15.95;;;6.72;;
63492;SDS011;49638;47.526;10.028;2023-02-24T10:59:25;12.73;;;6.88;;
63492;SDS011;49638;47.526;10.028;2023-02-24T11:02:57;15.18;;;6.57;;
63492;SDS011;49638;47.526;10.028;2023-02-24T11:09:40;20.58;;;7.35;;
63492;SDS011;49638;47.526;10.028;2023-02-24T11:12:51;14.73;;;6.88;;
63492;SDS011;49638;47.526;10.028;2023-02-24T11:16:13;14.93;;;6.90;;
63492;SDS011;49638;47.526;10.028;2023-02-24T11:19:32;14.93;;;6.65;;
63492;SDS011;49638;47.526;10.028;2023-02-24T11:22:44;14.90;;;6.65;;
63492;SDS011;49638;47.526;10.028;2023-02-24T11:25:51;14.10;;;7.00;;
63492;SDS011;49638;47.526;10.028;2023-02-24T11:32:10;13.63;;;6.03;;
63492;SDS011;49638;47.526;10.028;2023-02-24T11:38:42;12.98;;;6.90;;
63492;SDS011;49638;47.526;10.028;2023-02-24T11:42:08;15.13;;;6.72;;
63492;SDS011;49638;47.526;10.028;2023-02-24T11:48:50;16.60;;;6.78;;
63492;SDS011;49638;47.526;10.028;2023-02-24T11:51:55;17.27;;;6.15;;
63492;SDS011;49638;47.526;10.028;2023-02-24T11:55:04;11.60;;;5.47;;
63492;SDS011;49638;47.526;10.028;2023-02-24T12:05:23;15.63;;;5.07;;
63492;SDS011;49638;47.526;10.028;2023-02-24T12:08:27;15.70;;;4.07;;
63492;SDS011;49638;47.526;10.028;2023-02-24T12:11:37;12.10;;;4.35;;
63492;SDS011;49638;47.526;10.028;2023-02-24T12:14:52;14.23;;;4.35;;
63492;SDS011;49638;47.526;10.028;2023-02-24T12:21:41;10.50;;;3.35;;
63492;SDS011;49638;47.526;10.028;2023-02-24T12:24:46;13.70;;;3.58;;
63492;SDS011;49638;47.526;10.028;2023-02-24T12:27:56;17.60;;;3.50;;
63492;SDS011;49638;47.526;10.028;2023-02-24T12:44:51;13.00;;;3.72;;
63492;SDS011;49638;47.526;10.028;2023-02-24T12:51:53;19.25;;;4.45;;
63492;SDS011;49638;47.526;10.028;2023-02-24T12:55:17;17.77;;;4.65;;
63492;SDS011;49638;47.526;10.028;2023-02-24T13:01:32;18.40;;;4.75;;
63492;SDS011;49638;47.526;10.028;2023-02-24T13:04:55;15.30;;;4.10;;
63492;SDS011;49638;47.526;10.028;2023-02-24T13:08:09;13.52;;;4.82;;
63492;SDS011;49638;47.526;10.028;2023-02-24T13:11:37;21.52;;;4.25;;
63492;SDS011;49638;47.526;10.028;2023-02-24T13:14:44;14.60;;;4.47;;
63492;SDS011;49638;47.526;10.028;2023-02-24T13:17:45;20.55;;;4.80;;
63492;SDS011;49638;47.526;10.028;2023-02-24T13:20:59;15.63;;;4.57;;
63492;SDS011;49638;47.526;10.028;2023-02-24T13:24:02;16.85;;;4.57;;
63492;SDS011;49638;47.526;10.028;2023-02-24T13:27:03;18.30;;;4.57;;
63492;SDS011;49638;47.526;10.028;2023-02-24T13:39:31;19.30;;;4.82;;
63492;SDS011;49638;47.526;10.028;2023-02-24T13:42:31;15.27;;;4.15;;
63492;SDS011;49638;47.526;10.028;2023-02-24T13:45:33;16.00;;;4.88;;
63492;SDS011;49638;47.526;10.028;2023-02-24T13:51:50;17.08;;;4.65;;
63492;SDS011;49638;47.526;10.028;2023-02-24T13:55:01;22.13;;;4.78;;
63492;SDS011;49638;47.526;10.028;2023-02-24T14:01:20;14.73;;;4.45;;
63492;SDS011;49638;47.526;10.028;2023-02-24T14:04:25;15.65;;;4.65;;
63492;SDS011;49638;47.526;10.028;2023-02-24T14:07:30;18.63;;;4.85;;
63492;SDS011;49638;47.526;10.028;2023-02-24T14:10:32;21.98;;;5.05;;
63492;SDS011;49638;47.526;10.028;2023-02-24T14:13:35;15.60;;;5.03;;
63492;SDS011;49638;47.526;10.028;2023-02-24T14:16:36;19.52;;;4.97;;
63492;SDS011;49638;47.526;10.028;2023-02-24T14:19:40;17.17;;;4.75;;
63492;SDS011;49638;47.526;10.028;2023-02-24T14:22:42;20.83;;;4.70;;
63492;SDS011;49638;47.526;10.028;2023-02-24T14:26:01;15.80;;;5.68;;
63492;SDS011;49638;47.526;10.028;2023-02-24T14:29:05;16.65;;;5.20;;
63492;SDS011;49638;47.526;10.028;2023-02-24T14:32:14;16.25;;;4.80;;
63492;SDS011;49638;47.526;10.028;2023-02-24T14:35:22;17.05;;;4.43;;
63492;SDS011;49638;47.526;10.028;2023-02-24T14:38:29;16.15;;;4.57;;
63492;SDS011;49638;47.526;10.028;2023-02-24T14:41:36;13.70;;;4.63;;
63492;SDS011;49638;47.526;10.028;2023-02-24T14:44:44;21.70;;;4.70;;
63492;SDS011;49638;47.526;10.028;2023-02-24T14:47:46;19.42;;;4.85;;
63492;SDS011;49638;47.526;10.028;2023-02-24T14:50:47;19.10;;;4.93;;
63492;SDS011;49638;47.526;10.028;2023-02-24T14:53:49;23.20;;;4.95;;
63492;SDS011;49638;47.526;10.028;2023-02-24T14:56:52;23.85;;;5.30;;
63492;SDS011;49638;47.526;10.028;2023-02-24T14:59:54;20.45;;;4.85;;
63492;SDS011;49638;47.526;10.028;2023-02-24T15:03:09;21.25;;;4.60;;
63492;SDS011;49638;47.526;10.028;2023-02-24T15:06:17;21.40;;;4.97;;
63492;SDS011;49638;47.526;10.028;2023-02-24T15:09:22;15.80;;;4.72;;
63492;SDS011;49638;47.526;10.028;2023-02-24T15:12:31;20.25;;;5.38;;
63492;SDS011;49638;47.526;10.028;2023-02-24T15:15:34;20.25;;;4.95;;
63492;SDS011;49638;47.526;10.028;2023-02-24T15:18:38;20.50;;;5.32;;
63492;SDS011;49638;47.526;10.028;2023-02-24T15:21:39;19.98;;;4.53;;
63492;SDS011;49638;47.526;10.028;2023-02-24T15:24:41;21.13;;;4.85;;
63492;SDS011;49638;47.526;10.028;2023-02-24T15:34:12;20.98;;;4.47;;
63492;SDS011;49638;47.526;10.028;2023-02-24T15:37:38;32.92;;;5.68;;
63492;SDS011;49638;47.526;10.028;2023-02-24T15:40:40;28.00;;;5.68;;
63492;SDS011;49638;47.526;10.028;2023-02-24T15:43:52;20.77;;;5.10;;
63492;SDS011;49638;47.526;10.028;2023-02-24T15:46:55;18.13;;;5.22;;
63492;SDS011;49638;47.526;10.028;2023-02-24T15:49:57;15.75;;;4.50;;
63492;SDS011;49638;47.526;10.028;2023-02-24T15:52:59;23.50;;;5.30;;
63492;SDS011;49638;47.526;10.028;2023-02-24T15:56:02;22.38;;;5.55;;
63492;SDS011;49638;47.526;10.028;2023-02-24T15:59:04;20.25;;;5.30;;
63492;SDS011;49638;47.526;10.028;2023-02-24T16:02:10;21.90;;;4.80;;
63492;SDS011;49638;47.526;10.028;2023-02-24T16:05:12;25.40;;;5.20;;
63492;SDS011;49638;47.526;10.028;2023-02-24T16:08:15;17.77;;;4.95;;
63492;SDS011;49638;47.526;10.028;2023-02-24T16:11:20;18.25;;;5.03;;
63492;SDS011;49638;47.526;10.028;2023-02-24T16:14:24;22.23;;;5.47;;
63492;SDS011;49638;47.526;10.028;2023-02-24T16:20:38;24.75;;;5.50;;
63492;SDS011;49638;47.526;10.028;2023-02-24T16:23:38;22.55;;;5.45;;
63492;SDS011;49638;47.526;10.028;2023-02-24T16:26:41;31.07;;;7.00;;
63492;SDS011;49638;47.526;10.028;2023-02-24T16:29:42;19.48;;;5.50;;
63492;SDS011;49638;47.526;10.028;2023-02-24T16:32:43;27.02;;;6.68;;
63492;SDS011;49638;47.526;10.028;2023-02-24T16:35:44;31.75;;;7.18;;
63492;SDS011;49638;47.526;10.028;2023-02-24T16:38:45;24.52;;;6.28;;
63492;SDS011;49638;47.526;10.028;2023-02-24T16:41:45;24.73;;;6.50;;
63492;SDS011;49638;47.526;10.028;2023-02-24T16:44:47;28.13;;;6.40;;
63492;SDS011;49638;47.526;10.028;2023-02-24T16:47:48;26.08;;;6.35;;
63492;SDS011;49638;47.526;10.028;2023-02-24T16:50:49;23.63;;;6.43;;
63492;SDS011;49638;47.526;10.028;2023-02-24T16:53:49;20.42;;;5.88;;
63492;SDS011;49638;47.526;10.028;2023-02-24T16:56:49;26.98;;;7.13;;
63492;SDS011;49638;47.526;10.028;2023-02-24T16:59:50;25.75;;;6.68;;
63492;SDS011;49638;47.526;10.028;2023-02-24T17:02:51;23.23;;;6.88;;
63492;SDS011;49638;47.526;10.028;2023-02-24T17:05:52;22.63;;;6.68;;
63492;SDS011;49638;47.526;10.028;2023-02-24T17:08:52;24.83;;;6.45;;
63492;SDS011;49638;47.526;10.028;2023-02-24T17:11:53;23.50;;;6.47;;
63492;SDS011;49638;47.526;10.028;2023-02-24T17:14:53;30.85;;;7.53;;
63492;SDS011;49638;47.526;10.028;2023-02-24T17:17:53;25.95;;;8.52;;
63492;SDS011;49638;47.526;10.028;2023-02-24T17:20:53;23.50;;;6.60;;
63492;SDS011;49638;47.526;10.028;2023-02-24T17:23:54;23.50;;;7.22;;
63492;SDS011;49638;47.526;10.028;2023-02-24T17:26:54;28.58;;;7.28;;
63492;SDS011;49638;47.526;10.028;2023-02-24T17:29:59;21.48;;;7.68;;
63492;SDS011;49638;47.526;10.028;2023-02-24T17:33:00;21.30;;;7.15;;
63492;SDS011;49638;47.526;10.028;2023-02-24T17:36:00;22.33;;;7.15;;
63492;SDS011;49638;47.526;10.028;2023-02-24T17:39:01;25.38;;;8.75;;
63492;SDS011;49638;47.526;10.028;2023-02-24T17:42:01;21.08;;;8.50;;
63492;SDS011;49638;47.526;10.028;2023-02-24T17:45:02;34.03;;;9.18;;
63492;SDS011;49638;47.526;10.028;2023-02-24T17:48:03;24.73;;;8.60;;
63492;SDS011;49638;47.526;10.028;2023-02-24T17:51:03;35.53;;;9.55;;
63492;SDS011;49638;47.526;10.028;2023-02-24T17:54:03;27.40;;;9.20;;
63492;SDS011;49638;47.526;10.028;2023-02-24T17:57:04;32.47;;;8.43;;
63492;SDS011;49638;47.526;10.028;2023-02-24T18:00:05;20.73;;;8.80;;
63492;SDS011;49638;47.526;10.028;2023-02-24T18:03:07;27.45;;;8.07;;
63492;SDS011;49638;47.526;10.028;2023-02-24T18:06:08;29.80;;;8.68;;
63492;SDS011;49638;47.526;10.028;2023-02-24T18:09:10;35.55;;;9.15;;
63492;SDS011;49638;47.526;10.028;2023-02-24T18:12:10;26.33;;;8.68;;
63492;SDS011;49638;47.526;10.028;2023-02-24T18:15:11;28.83;;;9.73;;
63492;SDS011;49638;47.526;10.028;2023-02-24T18:18:11;28.27;;;9.63;;
63492;SDS011;49638;47.526;10.028;2023-02-24T18:21:11;33.38;;;8.90;;
63492;SDS011;49638;47.526;10.028;2023-02-24T18:24:12;25.88;;;9.00;;
63492;SDS011;49638;47.526;10.028;2023-02-24T18:27:12;26.15;;;8.85;;
63492;SDS011;49638;47.526;10.028;2023-02-24T18:30:13;28.60;;;9.15;;
63492;SDS011;49638;47.526;10.028;2023-02-24T18:33:16;29.05;;;9.55;;
63492;SDS011;49638;47.526;10.028;2023-02-24T18:36:17;33.10;;;8.73;;
63492;SDS011;49638;47.526;10.028;2023-02-24T18:39:17;29.15;;;10.98;;
63492;SDS011;49638;47.526;10.028;2023-02-24T18:42:18;26.38;;;9.73;;
63492;SDS011;49638;47.526;10.028;2023-02-24T18:45:19;23.42;;;8.68;;
63492;SDS011;49638;47.526;10.028;2023-02-24T18:48:20;36.20;;;9.68;;
63492;SDS011;49638;47.526;10.028;2023-02-24T18:51:21;30.55;;;9.48;;
63492;SDS011;49638;47.526;10.028;2023-02-24T18:54:21;23.73;;;7.75;;
63492;SDS011;49638;47.526;10.028;2023-02-24T18:57:22;25.10;;;9.27;;
63492;SDS011;49638;47.526;10.028;2023-02-24T19:00:22;25.65;;;8.38;;
63492;SDS011;49638;47.526;10.028;2023-02-24T19:03:22;20.30;;;6.82;;
63492;SDS011;49638;47.526;10.028;2023-02-24T19:06:24;11.90;;;4.80;;
63492;SDS011;49638;47.526;10.028;2023-02-24T19:09:25;11.30;;;3.90;;
63492;SDS011;49638;47.526;10.028;2023-02-24T19:12:26;11.50;;;5.07;;
63492;SDS011;49638;47.526;10.028;2023-02-24T19:15:26;10.93;;;4.57;;
63492;SDS011;49638;47.526;10.028;2023-02-24T19:18:26;9.52;;;3.60;;
63492;SDS011;49638;47.526;10.028;2023-02-24T19:21:28;7.57;;;2.80;;
63492;SDS011;49638;47.526;10.028;2023-02-24T19:24:30;8.27;;;3.00;;
63492;SDS011;49638;47.526;10.028;2023-02-24T19:27:30;4.22;;;2.30;;
63492;SDS011;49638;47.526;10.028;2023-02-24T19:30:30;6.38;;;2.42;;
63492;SDS011;49638;47.526;10.028;2023-02-24T19:33:31;6.30;;;2.22;;
63492;SDS011;49638;47.526;10.028;2023-02-24T19:36:32;3.92;;;2.00;;
63492;SDS011;49638;47.526;10.028;2023-02-24T19:39:33;3.28;;;1.80;;
63492;SDS011;49638;47.526;10.028;2023-02-24T19:42:34;3.90;;;1.67;;
63492;SDS011;49638;47.526;10.028;2023-02-24T19:45:34;5.80;;;1.80;;
63492;SDS011;49638;47.526;10.028;2023-02-24T19:48:38;5.95;;;1.95;;
63492;SDS011;49638;47.526;10.028;2023-02-24T19:51:39;4.75;;;1.55;;
63492;SDS011;49638;47.526;10.028;2023-02-24T19:54:39;5.43;;;1.80;;
63492;SDS011;49638;47.526;10.028;2023-02-24T19:57:40;5.35;;;2.17;;